• Join FlightAware (Why Join?)
  • Login
  • US Flag 
05:46PM EDT


 

Airport Tracker/Info


-or-


 

Live Flight TrackerFlight Track Log ✈ N231CW ✈ 30-Mar-2014 ✈ KFTW - KSAT

Flight Track Log - Related Links

Times and Time Zones

All times are in EDT time to prevent confusion due to time zone crossing. See the N231CW flight status page for this flight to view local times or setup timezone preferences in your user account.

Time Position Orientation Groundspeed Altitude Reporting Facility
EDT Latitude Longitude Course Direction KTS MPH feet Rate Location/Type
02:34PM 32.8858 -97.5411 198° South 130 150 2,700  Level Fort Worth Center
02:35PM 32.8608 -97.5500 197° South 101 116 3,800 900 Climbing Fort Worth Center
02:36PM 32.8350 -97.5586 196° South 86 99 4,600 720 Climbing Fort Worth Center
02:37PM 32.8150 -97.5669 199° South 80 92 5,300 720 Climbing Fort Worth Center
02:39PM 32.7942 -97.5750 198° South 80 92 6,100 720 Climbing Fort Worth Center
02:40PM 32.5951 -97.4331 198° South  Level FlightAware Approximate
02:40PM 32.7706 -97.5833 197° South 80 92 6,800  Level Fort Worth Center
02:41PM 32.7456 -97.5936 199° South 90 104 7,400 660 Climbing Fort Worth Center
02:42PM 32.7178 -97.6042 198° South 93 107 8,200 480 Climbing Fort Worth Center
02:43PM 32.6922 -97.6136 197° South 95 109 8,500 120 Climbing Fort Worth Center
02:44PM 32.6556 -97.6261 196° South 133 153 8,500 300 Level Fort Worth Center
02:45PM 32.6139 -97.6347 190° South 134 154 9,200 660 Climbing Fort Worth Center
02:46PM 32.5881 -97.6508 208° Southwest 108 124 9,900 660 Climbing Fort Worth Center
02:47PM 32.5567 -97.6644 200° South 110 127 10,600 600 Climbing Fort Worth Center
02:48PM 32.5294 -97.6742 197° South 111 128 11,200 600 Climbing Fort Worth Center
02:49PM 32.4994 -97.6864 199° South 109 125 11,900 540 Climbing Fort Worth Center
02:50PM 32.4672 -97.6958 194° South 109 125 12,400 240 Climbing Fort Worth Center
02:51PM 32.4308 -97.7028 189° South 127 146 12,400  Level Fort Worth Center
02:52PM 32.3875 -97.7203 199° South 148 170 12,500  Climbing Fort Worth Center
02:53PM 32.3514 -97.7433 208° Southwest 147 169 12,500 420 Level Fort Worth Center
02:54PM 32.3156 -97.7592 200° South 137 158 13,400 840 Climbing Fort Worth Center
02:55PM 32.2817 -97.7606 182° South 116 133 14,300 480 Climbing Fort Worth Center
02:56PM 32.2497 -97.7747 201° Southwest 125 144 14,400 60 Climbing Fort Worth Center
02:57PM 32.2072 -97.7944 201° Southwest 148 170 14,500  Climbing Fort Worth Center
02:58PM 32.1678 -97.8097 198° South 149 171 14,500  Level Fort Worth Center
02:59PM 32.1261 -97.8253 198° South 153 176 14,500  Level Fort Worth Center
03:00PM 32.0806 -97.8433 199° South 158 182 14,500  Level Fort Worth Center
03:01PM 32.0386 -97.8583 197° South 157 181 14,500  Level Fort Worth Center
03:02PM 31.9931 -97.8742 196° South 158 182 14,500  Level Fort Worth Center
03:03PM 31.9517 -97.8922 200° South 160 184 14,500  Level Fort Worth Center
03:04PM 31.9089 -97.9044 194° South 160 184 14,500  Level Fort Worth Center
03:05PM 31.8675 -97.9231 201° Southwest 160 184 14,500  Level Fort Worth Center
03:06PM 31.8275 -97.9392 199° South 158 182 14,500  Level Fort Worth Center
03:07PM 31.7847 -97.9542 197° South 158 182 14,500  Level Fort Worth Center
03:09PM 31.7333 -97.9700 195° South 158 182 14,500 -60 Level Fort Worth Center
03:10PM 31.6922 -97.9847 197° South 158 182 14,400  Descending Fort Worth Center
03:11PM 31.6542 -98.0006 200° South 153 176 14,500  Climbing Fort Worth Center
03:12PM 31.6175 -98.0156 199° South 145 167 14,500  Level Fort Worth Center
03:13PM 31.5758 -98.0275 194° South 146 168 14,500  Level Fort Worth Center
03:14PM 31.5250 -98.0467 198° South 158 182 14,500  Level Fort Worth Center
03:15PM 31.4853 -98.0622 198° South 156 180 14,500  Level Fort Worth Center
03:16PM 31.4428 -98.0775 197° South 156 180 14,500  Level Fort Worth Center
03:17PM 31.4008 -98.0922 197° South 157 181 14,500  Level Fort Worth Center
03:18PM 31.3597 -98.1069 197° South 157 181 14,500  Level Fort Worth Center
03:19PM 31.3172 -98.1214 196° South 157 181 14,500 -60 Level Fort Worth Center
03:20PM 31.2672 -98.1408 198° South 157 181 14,400 -60 Descending Fort Worth Center
03:21PM 31.2247 -98.1553 196° South 158 182 14,400  Level Fort Worth Center
03:22PM 31.1817 -98.1714 198° South 158 182 14,500  Climbing Fort Worth Center
03:23PM 31.1464 -98.1850 198° South 155 178 14,400 -60 Descending Fort Worth Center
03:24PM 31.1056 -98.2006 198° South 155 178 14,400  Level Fort Worth Center
03:25PM 31.0583 -98.2181 198° South 155 178 14,400  Level Houston Center
03:26PM 31.0092 -98.2361 197° South 155 178 14,400  Level Houston Center
03:27PM 30.9697 -98.2497 196° South 152 175 14,400  Level Houston Center
03:28PM 30.9297 -98.2650 198° South 152 175 14,400  Level Houston Center
03:29PM 30.8889 -98.2786 196° South 152 175 14,400  Level Houston Center
03:30PM 30.8481 -98.2942 198° South 152 175 14,400  Level Houston Center
03:31PM 30.7989 -98.3108 196° South 152 175 14,500  Climbing Houston Center
03:32PM 30.7564 -98.3267 198° South 154 177 14,400 -60 Descending Houston Center
03:33PM 30.7144 -98.3414 197° South 157 181 14,400  Level Houston Center
03:35PM 30.6714 -98.3564 197° South 156 180 14,400  Level Houston Center
03:36PM 30.6314 -98.3703 197° South 157 181 14,500  Climbing Houston Center
03:37PM 30.5803 -98.3889 197° South 157 181 14,400 -60 Descending Houston Center
03:38PM 30.5400 -98.4028 197° South 157 181 14,400  Level Houston Center
03:39PM 30.4992 -98.4186 198° South 156 180 14,400  Level Houston Center
03:40PM 30.4581 -98.4331 197° South 156 180 14,500 -120 Climbing Houston Center
03:41PM 30.4181 -98.4478 198° South 153 176 14,200 -600 Descending Houston Center
03:42PM 30.3719 -98.4647 198° South 164 189 13,300 -1,020 Descending Houston Center
03:43PM 30.3122 -98.4867 198° South 179 206 12,200 -1,080 Descending Houston Center
03:44PM 30.2656 -98.5044 198° South 188 216 11,300 -960 Descending Houston Center
03:44PM 30.2589 -98.5050 184° South 187 215 11,200 -1,020 Descending Houston Center
03:44PM 30.2469 -98.5092 197° South 189 217 10,900 -1,200 Descending Houston Center
03:45PM 30.2075 -98.5225 196° South 192 221 10,000 -1,140 Descending Houston Center
03:45PM 30.1942 -98.5278 199° South 196 226 9,800 -1,020 Descending Houston Center
03:46PM 30.1525 -98.5428 197° South 194 223 9,000 -840 Descending Houston Center
03:46PM 30.1433 -98.5458 196° South 191 220 9,000 -600 Level Houston Center
03:47PM 30.1069 -98.5592 198° South 175 201 8,400 -720 Descending Houston Center
03:47PM 30.1006 -98.5606 191° South 165 190 8,300 -780 Descending Houston Center
03:48PM 30.0625 -98.5756 199° South 159 183 7,600 -780 Descending Houston Center
03:48PM 30.0622 -98.5772 259° West 153 176 7,600 -720 Level Houston Center
03:49PM 30.0219 -98.5889 194° South 155 178 6,900 -720 Descending Houston Center
03:49PM 30.0214 -98.5894 221° Southwest 151 174 6,900 -780 Level Houston Center
03:50PM 29.9783 -98.6042 196° South 154 177 6,100 -840 Descending Houston Center
03:50PM 29.9747 -98.6072 216° Southwest 151 174 6,000 -900 Descending Houston Center
03:51PM 29.9378 -98.6186 195° South 147 169 5,200 -900 Descending Houston Center
03:51PM 29.9389 -98.6183 12° North 152 175 5,200 -300 Level Houston Center
03:52PM 29.9017 -98.6325 198° South 149 171 4,900 -300 Descending Houston Center
03:55PM 29.8133 -98.6568 193° South  Level FlightAware Approximate
04:02PM 29.7167 -98.6833 197° South  Level FlightAware Approximate
04:03PM 29.6900 -98.6520 134° Southeast  Level Estimated
04:04PM 29.6633 -98.6207 134° Southeast  Level Estimated
04:05PM 29.6366 -98.5893 134° Southeast  Level Estimated
04:06PM 29.6099 -98.5580 134° Southeast  Level Estimated
04:07PM 29.5833 -98.5267 134° Southeast  Level Estimated
04:08PM 29.5565 -98.4955 134° Southeast  Level Estimated
04:09PM 29.5340 -98.4691 134° Southeast  Level Estimated
04:10PM 29.5340 -98.4691 North  Level Estimated
04:11PM 29.5340 -98.4691 North  Level Estimated
04:12PM 29.5340 -98.4691 North  Level Estimated
04:13PM 29.5340 -98.4691 North  Level Estimated
04:14PM 29.5340 -98.4691 North  Level Estimated
04:15PM 29.5340 -98.4691 North  Level Estimated
04:16PM 29.5340 -98.4691 North  Level Estimated
04:17PM 29.5340 -98.4691 North  Level Estimated